Time;durP1;ratioP1;P1;durP2;ratioP2;P2;SDS_P1;SDS_P2;PMS_P1;PMS_P2;Temp;Humidity;BMP_temperature;BMP_pressure;BME280_temperature;BME280_humidity;BME280_pressure;Samples;Min_cycle;Max_cycle;Signal;HPM_P1;HPM_P2
2023/03/12 00:00:28;;;;;;;2.63;2.10;;;22.10;50.80;;;;;;5029883;28;20590;-81
2023/03/12 00:02:57;;;;;;;3.10;2.57;;;22.10;50.80;;;;;;5034202;28;20541;-80
2023/03/12 00:05:25;;;;;;;2.83;2.57;;;22.10;50.80;;;;;;5031495;28;20490;-81
2023/03/12 00:07:58;;;;;;;3.57;2.20;;;22.10;50.80;;;;;;5021481;28;20454;-83
2023/03/12 00:10:26;;;;;;;2.40;2.13;;;22.10;50.80;;;;;;5031979;28;20467;-82
2023/03/12 00:12:55;;;;;;;2.70;2.50;;;22.10;50.80;;;;;;5021992;28;21074;-82
2023/03/12 00:15:24;;;;;;;4.17;2.73;;;22.10;50.80;;;;;;5031640;28;20949;-83
2023/03/12 00:17:52;;;;;;;2.97;2.27;;;22.00;50.80;;;;;;5032004;28;20459;-82
2023/03/12 00:20:22;;;;;;;2.90;2.60;;;22.00;50.80;;;;;;5030572;28;20534;-83
2023/03/12 00:22:50;;;;;;;2.70;2.50;;;22.00;50.70;;;;;;5031965;28;20461;-83
2023/03/12 00:25:19;;;;;;;3.17;2.83;;;22.00;50.80;;;;;;5026025;28;20555;-82
2023/03/12 00:27:48;;;;;;;4.03;3.60;;;22.00;50.80;;;;;;5028895;28;21157;-82
2023/03/12 00:30:16;;;;;;;3.50;2.23;;;22.00;50.80;;;;;;5030145;28;20470;-83
2023/03/12 00:32:45;;;;;;;2.87;2.40;;;21.90;50.80;;;;;;5031789;28;20615;-82
2023/03/12 00:35:14;;;;;;;2.40;2.20;;;21.90;50.80;;;;;;5029840;28;20459;-82
2023/03/12 00:37:42;;;;;;;2.83;2.33;;;21.90;50.80;;;;;;5031501;28;20474;-82
2023/03/12 00:40:11;;;;;;;3.70;2.93;;;21.90;50.80;;;;;;5027330;28;20555;-82
2023/03/12 00:42:40;;;;;;;2.67;2.47;;;21.90;50.80;;;;;;5051246;28;20532;-82
2023/03/12 00:45:08;;;;;;;3.80;2.67;;;21.90;50.80;;;;;;5051670;28;20964;-82
2023/03/12 00:47:37;;;;;;;2.90;2.60;;;21.90;50.80;;;;;;5051132;28;20525;-82
2023/03/12 00:50:07;;;;;;;2.57;2.37;;;21.90;50.80;;;;;;5049266;28;20473;-83
2023/03/12 00:52:35;;;;;;;3.60;2.77;;;21.90;50.70;;;;;;5044647;28;20451;-83
2023/03/12 00:55:04;;;;;;;3.07;2.77;;;21.90;50.70;;;;;;5019684;28;20458;-83
2023/03/12 00:57:32;;;;;;;3.03;2.70;;;21.90;50.70;;;;;;5035434;28;20461;-83
2023/03/12 01:00:00;;;;;;;2.50;2.30;;;21.90;50.70;;;;;;5028493;28;20468;-83
2023/03/12 01:02:28;;;;;;;2.63;2.43;;;21.90;50.60;;;;;;5030997;28;20445;-83
2023/03/12 01:04:57;;;;;;;4.27;3.83;;;21.90;50.60;;;;;;5028818;28;20937;-82
2023/03/12 01:07:26;;;;;;;3.40;3.10;;;21.90;50.60;;;;;;5026961;28;21087;-83
2023/03/12 01:09:55;;;;;;;2.97;2.67;;;21.90;50.60;;;;;;5027694;28;20475;-83
2023/03/12 01:12:23;;;;;;;3.10;2.80;;;21.90;50.50;;;;;;5031159;28;20525;-83
2023/03/12 01:14:51;;;;;;;2.60;2.40;;;21.90;50.50;;;;;;5036722;28;20687;-82
2023/03/12 01:17:19;;;;;;;2.70;2.50;;;21.90;50.50;;;;;;5024364;28;20460;-83
2023/03/12 01:19:47;;;;;;;2.53;2.30;;;21.90;50.50;;;;;;5028936;28;20864;-83
2023/03/12 01:22:16;;;;;;;2.80;2.60;;;21.90;50.40;;;;;;5029680;28;20472;-82
2023/03/12 01:24:45;;;;;;;2.90;2.70;;;21.90;50.40;;;;;;5014836;28;20986;-82
2023/03/12 01:27:14;;;;;;;2.07;1.93;;;21.90;50.40;;;;;;5011592;28;20448;-82
2023/03/12 01:29:42;;;;;;;2.90;2.57;;;21.90;50.40;;;;;;5026860;28;20447;-82
2023/03/12 01:32:10;;;;;;;2.50;2.30;;;21.90;50.40;;;;;;5031058;28;20470;-82
2023/03/12 01:34:38;;;;;;;2.73;2.57;;;21.90;50.40;;;;;;5030701;28;20566;-82
2023/03/12 01:37:07;;;;;;;2.53;2.30;;;21.90;50.40;;;;;;5023858;28;21090;-83
2023/03/12 01:39:35;;;;;;;2.47;2.27;;;21.90;50.40;;;;;;5013608;28;20954;-82
2023/03/12 01:42:05;;;;;;;2.97;2.50;;;21.90;50.40;;;;;;5014253;28;20930;-82
2023/03/12 01:44:49;;;;;;;3.07;2.87;;;21.90;50.40;;;;;;5027790;28;20517;-82
2023/03/12 01:47:17;;;;;;;3.33;2.73;;;21.90;50.30;;;;;;5033559;28;20470;-82
2023/03/12 01:49:46;;;;;;;3.20;2.40;;;21.80;50.30;;;;;;5027652;28;20557;-82
2023/03/12 01:52:16;;;;;;;2.30;2.20;;;21.80;50.30;;;;;;5025340;28;20480;-82
2023/03/12 01:54:53;;;;;;;2.20;2.00;;;21.80;50.30;;;;;;5024348;28;21128;-83
2023/03/12 01:57:26;;;;;;;2.47;2.00;;;21.80;50.30;;;;;;5031012;28;20545;-82
2023/03/12 01:59:59;;;;;;;2.93;2.53;;;21.80;50.30;;;;;;5032522;28;20445;-83
2023/03/12 02:02:28;;;;;;;3.37;3.07;;;21.80;50.30;;;;;;5027382;28;21026;-82
2023/03/12 02:05:07;;;;;;;2.30;2.20;;;21.80;50.30;;;;;;5027490;28;20516;-83
2023/03/12 02:07:35;;;;;;;3.03;2.73;;;21.80;50.30;;;;;;5022179;28;20541;-83
2023/03/12 02:10:05;;;;;;;2.60;2.40;;;21.80;50.30;;;;;;5035560;28;20467;-82
2023/03/12 02:12:35;;;;;;;3.13;2.20;;;21.80;50.30;;;;;;5025625;28;20496;-82
2023/03/12 02:15:04;;;;;;;2.53;2.40;;;21.80;50.30;;;;;;5034457;28;20550;-82
2023/03/12 02:17:33;;;;;;;2.40;2.20;;;21.80;50.20;;;;;;5033212;28;20501;-82
2023/03/12 02:20:09;;;;;;;2.67;2.47;;;21.80;50.20;;;;;;5003484;28;20477;-82
2023/03/12 02:22:40;;;;;;;2.53;2.33;;;21.80;50.20;;;;;;5034557;28;20442;-83
2023/03/12 02:25:29;;;;;;;2.87;2.60;;;21.80;50.20;;;;;;5034017;28;20435;-82
2023/03/12 02:27:59;;;;;;;2.10;2.00;;;21.80;50.20;;;;;;5032956;28;20568;-83
2023/03/12 02:30:30;;;;;;;2.27;2.17;;;21.80;50.20;;;;;;5030033;28;20564;-83
2023/03/12 02:33:01;;;;;;;3.23;2.93;;;21.80;50.20;;;;;;5021079;28;20961;-83
2023/03/12 02:35:29;;;;;;;2.50;2.30;;;21.80;50.10;;;;;;5032487;28;21140;-82
2023/03/12 02:37:58;;;;;;;3.00;2.40;;;21.80;50.10;;;;;;5032774;28;20820;-83
2023/03/12 02:40:31;;;;;;;2.93;2.37;;;21.80;50.10;;;;;;5032938;28;20467;-83
2023/03/12 02:43:00;;;;;;;2.37;1.87;;;21.80;50.10;;;;;;5036167;28;20540;-83
2023/03/12 02:45:29;;;;;;;2.30;2.10;;;21.80;50.10;;;;;;5053747;28;20533;-83
2023/03/12 02:47:57;;;;;;;2.33;2.13;;;21.80;50.10;;;;;;5016982;28;20531;-83
2023/03/12 02:50:25;;;;;;;2.37;2.20;;;21.80;50.10;;;;;;5032413;28;20542;-83
2023/03/12 02:52:54;;;;;;;2.53;2.33;;;21.80;50.10;;;;;;5029712;28;20564;-83
2023/03/12 02:55:22;;;;;;;2.30;2.10;;;21.80;50.10;;;;;;5032167;28;20488;-83
2023/03/12 02:57:51;;;;;;;2.83;2.40;;;21.80;50.00;;;;;;5033608;28;20475;-83
2023/03/12 03:00:20;;;;;;;2.60;2.40;;;21.80;50.00;;;;;;5018565;28;20519;-83
2023/03/12 03:02:51;;;;;;;2.30;2.10;;;21.80;50.00;;;;;;5012457;28;20462;-83
2023/03/12 03:05:20;;;;;;;2.20;2.10;;;21.80;50.00;;;;;;5012112;28;20517;-83
2023/03/12 03:07:48;;;;;;;2.37;2.17;;;21.80;50.00;;;;;;5014927;28;20483;-83
2023/03/12 03:10:17;;;;;;;1.97;1.87;;;21.80;50.00;;;;;;5033468;28;20938;-83
2023/03/12 03:12:45;;;;;;;2.47;2.37;;;21.80;50.00;;;;;;5032334;28;20514;-83
2023/03/12 03:15:15;;;;;;;2.70;2.50;;;21.70;50.00;;;;;;5031623;28;20463;-83
2023/03/12 03:17:43;;;;;;;2.40;2.20;;;21.70;50.00;;;;;;5031653;28;20506;-83
2023/03/12 03:20:12;;;;;;;2.40;2.17;;;21.70;50.00;;;;;;5031503;28;20451;-83
2023/03/12 03:22:40;;;;;;;2.40;2.20;;;21.70;49.90;;;;;;5028065;28;20995;-82
2023/03/12 03:25:10;;;;;;;2.07;1.97;;;21.70;49.90;;;;;;5022076;28;21046;-83
2023/03/12 03:27:38;;;;;;;2.80;2.30;;;21.70;49.90;;;;;;5031670;28;20451;-83
2023/03/12 03:30:08;;;;;;;2.50;2.30;;;21.70;49.90;;;;;;5032882;28;20510;-83
2023/03/12 03:32:42;;;;;;;3.90;2.63;;;21.70;49.90;;;;;;5035936;28;20857;-83
2023/03/12 03:35:12;;;;;;;2.20;2.10;;;21.70;49.90;;;;;;5031212;28;20459;-83
2023/03/12 03:37:40;;;;;;;2.50;2.30;;;21.70;49.90;;;;;;5030315;28;20996;-83
2023/03/12 03:40:10;;;;;;;2.50;2.30;;;21.70;49.90;;;;;;5032834;28;20454;-83
2023/03/12 03:42:39;;;;;;;2.57;2.37;;;21.70;49.90;;;;;;5032518;28;21010;-83
2023/03/12 03:45:09;;;;;;;2.40;2.20;;;21.70;49.90;;;;;;5030592;28;20503;-82
2023/03/12 03:47:40;;;;;;;2.60;2.40;;;21.70;49.90;;;;;;5027216;28;20514;-83
2023/03/12 03:50:11;;;;;;;1.80;1.70;;;21.70;49.90;;;;;;5011037;28;20455;-82
2023/03/12 03:52:39;;;;;;;2.37;2.17;;;21.70;49.80;;;;;;5024261;28;21148;-83
2023/03/12 03:55:08;;;;;;;1.93;1.83;;;21.70;49.80;;;;;;5031600;28;20460;-83
2023/03/12 03:57:36;;;;;;;2.00;1.90;;;21.70;49.80;;;;;;5028030;28;20553;-82
2023/03/12 04:00:11;;;;;;;2.67;2.47;;;21.70;49.80;;;;;;5042638;28;20519;-82
2023/03/12 04:02:44;;;;;;;2.00;1.77;;;21.70;49.80;;;;;;5051357;28;20552;-83
2023/03/12 04:05:14;;;;;;;2.70;2.13;;;21.70;49.80;;;;;;5050154;28;20460;-82
2023/03/12 04:07:43;;;;;;;2.17;2.07;;;21.70;49.80;;;;;;5050826;28;20454;-82
2023/03/12 04:10:12;;;;;;;2.43;2.23;;;21.70;49.80;;;;;;5047530;28;20488;-83
2023/03/12 04:12:41;;;;;;;2.10;1.90;;;21.70;49.80;;;;;;5027870;28;20976;-83
2023/03/12 04:15:09;;;;;;;1.97;1.87;;;21.70;49.80;;;;;;5031902;28;20537;-83
2023/03/12 04:17:38;;;;;;;2.50;2.30;;;21.70;49.80;;;;;;5031416;28;20494;-83
2023/03/12 04:20:10;;;;;;;2.03;1.90;;;21.70;49.80;;;;;;5031275;28;20546;-82
2023/03/12 04:22:40;;;;;;;2.60;2.43;;;21.70;49.70;;;;;;5046603;28;20458;-83
2023/03/12 04:25:10;;;;;;;2.20;2.10;;;21.70;49.70;;;;;;5032404;28;20472;-83
2023/03/12 04:27:38;;;;;;;2.53;2.37;;;21.70;49.70;;;;;;5030205;28;20841;-83
2023/03/12 04:30:08;;;;;;;2.43;2.33;;;21.70;49.80;;;;;;5031576;28;20466;-83
2023/03/12 04:32:38;;;;;;;1.93;1.83;;;21.70;49.70;;;;;;5030626;28;20800;-83
2023/03/12 04:35:08;;;;;;;2.60;2.40;;;21.70;49.70;;;;;;5029500;28;20542;-83
2023/03/12 04:37:36;;;;;;;2.37;2.00;;;21.70;49.80;;;;;;5010434;28;21032;-82
2023/03/12 04:40:06;;;;;;;2.67;2.50;;;21.70;49.70;;;;;;5018529;28;20473;-82
2023/03/12 04:42:35;;;;;;;1.90;1.80;;;21.70;49.70;;;;;;5011708;28;20505;-83
2023/03/12 04:45:06;;;;;;;2.00;1.90;;;21.70;49.70;;;;;;5010632;28;21174;-82
2023/03/12 04:47:37;;;;;;;1.90;1.80;;;21.70;49.80;;;;;;5036614;28;20460;-83
2023/03/12 04:50:08;;;;;;;2.47;2.23;;;21.70;49.80;;;;;;5049367;28;20854;-83
2023/03/12 04:52:36;;;;;;;1.93;1.83;;;21.70;49.70;;;;;;5026020;28;20465;-83
2023/03/12 04:55:07;;;;;;;1.80;1.70;;;21.60;49.80;;;;;;5028346;28;20449;-83
2023/03/12 04:57:35;;;;;;;2.43;2.03;;;21.70;49.80;;;;;;5031093;28;21250;-82
2023/03/12 05:00:09;;;;;;;2.57;2.23;;;21.70;49.80;;;;;;5019254;28;20554;-83
2023/03/12 05:02:37;;;;;;;2.43;2.23;;;21.70;49.80;;;;;;5010842;28;20470;-83
2023/03/12 05:05:10;;;;;;;2.40;2.20;;;21.70;49.80;;;;;;5010624;28;20431;-83
2023/03/12 05:07:40;;;;;;;2.90;2.70;;;21.70;49.70;;;;;;5010178;28;20849;-83
2023/03/12 05:10:09;;;;;;;2.30;2.10;;;21.60;49.80;;;;;;5011737;28;20914;-83
2023/03/12 05:12:38;;;;;;;2.00;1.70;;;21.70;49.70;;;;;;5021180;28;20573;-82
2023/03/12 05:15:07;;;;;;;2.50;2.30;;;21.70;49.60;;;;;;5030266;28;21014;-80
2023/03/12 05:17:36;;;;;;;2.43;2.23;;;21.70;49.70;;;;;;5029669;28;20463;-83
2023/03/12 05:20:08;;;;;;;2.03;1.93;;;21.60;49.70;;;;;;5029008;28;20833;-82
2023/03/12 05:22:37;;;;;;;2.73;1.90;;;21.60;49.70;;;;;;5031321;28;20443;-83
2023/03/12 05:25:07;;;;;;;1.97;1.87;;;21.60;49.70;;;;;;5025678;28;20529;-83
2023/03/12 05:27:35;;;;;;;2.27;2.07;;;21.70;49.70;;;;;;5029489;28;20469;-83
2023/03/12 05:30:13;;;;;;;2.03;1.87;;;21.70;49.70;;;;;;5029137;28;20549;-83
2023/03/12 05:32:41;;;;;;;1.90;1.70;;;21.60;49.70;;;;;;5032052;28;20461;-83
2023/03/12 05:35:11;;;;;;;2.00;1.90;;;21.60;49.70;;;;;;5028825;28;20957;-83
2023/03/12 05:37:41;;;;;;;2.07;1.87;;;21.60;49.70;;;;;;5027090;28;20498;-82
2023/03/12 05:40:14;;;;;;;2.10;1.90;;;21.60;49.60;;;;;;5046642;28;20475;-83
2023/03/12 05:42:42;;;;;;;2.10;2.00;;;21.70;49.60;;;;;;5017170;28;20544;-83
2023/03/12 05:45:11;;;;;;;2.47;2.27;;;21.60;49.60;;;;;;5027762;28;20461;-83
2023/03/12 05:47:43;;;;;;;1.93;1.80;;;21.60;49.60;;;;;;5029117;28;20517;-83
2023/03/12 05:50:15;;;;;;;2.10;2.00;;;21.60;49.60;;;;;;5022531;28;20462;-82
2023/03/12 05:52:43;;;;;;;2.30;2.10;;;21.70;49.60;;;;;;5019597;28;20467;-83
2023/03/12 05:55:12;;;;;;;2.40;2.20;;;21.70;49.60;;;;;;5022266;28;20487;-82
2023/03/12 05:57:41;;;;;;;2.10;2.00;;;21.70;49.60;;;;;;5029654;28;20925;-83
2023/03/12 06:00:13;;;;;;;2.20;2.00;;;21.70;49.50;;;;;;5042269;28;20450;-82
2023/03/12 06:02:45;;;;;;;2.07;1.97;;;21.70;49.40;;;;;;5012631;28;20500;-83
2023/03/12 06:05:16;;;;;;;2.37;2.17;;;21.70;49.50;;;;;;5026737;28;20458;-83
2023/03/12 06:07:44;;;;;;;1.90;1.70;;;21.70;49.40;;;;;;5023747;28;20981;-83
2023/03/12 06:10:13;;;;;;;2.03;1.90;;;21.70;49.50;;;;;;5033863;28;20482;-82
2023/03/12 06:12:41;;;;;;;1.83;1.73;;;21.70;49.50;;;;;;5032301;28;20466;-83
2023/03/12 06:15:10;;;;;;;2.10;2.00;;;21.60;49.50;;;;;;5029254;28;20562;-83
2023/03/12 06:17:39;;;;;;;1.80;1.70;;;21.60;49.50;;;;;;5029593;28;20893;-83
2023/03/12 06:20:09;;;;;;;2.10;2.00;;;21.60;49.50;;;;;;5032965;28;20820;-83
2023/03/12 06:22:39;;;;;;;1.90;1.80;;;21.60;49.50;;;;;;5019714;28;20461;-83
2023/03/12 06:25:08;;;;;;;2.00;1.90;;;21.60;49.50;;;;;;5022698;28;20500;-82
2023/03/12 06:27:36;;;;;;;2.13;2.00;;;21.60;49.50;;;;;;5028888;28;20464;-83
2023/03/12 06:30:05;;;;;;;1.93;1.83;;;21.60;49.50;;;;;;5031511;28;20456;-83
2023/03/12 06:32:34;;;;;;;2.07;1.93;;;21.60;49.60;;;;;;5033221;28;20453;-83
2023/03/12 06:35:03;;;;;;;1.87;1.77;;;21.60;49.50;;;;;;5033499;28;20473;-83
2023/03/12 06:37:31;;;;;;;1.70;1.60;;;21.60;49.60;;;;;;5025079;28;20683;-82
2023/03/12 06:40:01;;;;;;;2.20;2.00;;;21.50;49.60;;;;;;5041481;28;20475;-82
2023/03/12 06:42:29;;;;;;;2.03;1.93;;;21.50;49.60;;;;;;5049637;28;20445;-82
2023/03/12 06:44:57;;;;;;;2.17;2.00;;;21.50;49.60;;;;;;5033405;28;20441;-83
2023/03/12 06:47:25;;;;;;;1.93;1.63;;;21.50;49.60;;;;;;5032964;28;20436;-83
2023/03/12 06:49:53;;;;;;;1.87;1.77;;;21.50;49.60;;;;;;5037972;28;20534;-83
2023/03/12 06:52:21;;;;;;;2.07;1.83;;;21.60;49.60;;;;;;5024249;28;20459;-83
2023/03/12 06:54:49;;;;;;;2.10;2.00;;;21.60;49.60;;;;;;5034171;28;20463;-82
2023/03/12 06:57:19;;;;;;;2.00;1.90;;;21.60;49.60;;;;;;5025956;28;20870;-83
2023/03/12 06:59:47;;;;;;;1.50;1.40;;;21.60;49.50;;;;;;5025075;28;20455;-82
2023/03/12 07:02:17;;;;;;;2.10;2.00;;;21.60;49.50;;;;;;5013900;28;20440;-83
2023/03/12 07:04:45;;;;;;;1.50;1.40;;;21.60;49.50;;;;;;5013386;28;20938;-82
2023/03/12 07:07:15;;;;;;;2.00;1.90;;;21.60;49.50;;;;;;5013502;28;20453;-83
2023/03/12 07:09:44;;;;;;;1.87;1.77;;;21.60;49.50;;;;;;5035238;28;20436;-83
2023/03/12 07:12:12;;;;;;;1.93;1.73;;;21.70;49.40;;;;;;5045578;28;20985;-83
2023/03/12 07:14:41;;;;;;;1.87;1.77;;;21.70;49.40;;;;;;5021099;28;20470;-83
2023/03/12 07:17:09;;;;;;;2.07;1.97;;;21.70;49.30;;;;;;5032489;28;20472;-83
2023/03/12 07:19:38;;;;;;;1.93;1.83;;;21.70;49.30;;;;;;5034569;28;20468;-83
2023/03/12 07:22:06;;;;;;;1.73;1.63;;;21.70;49.30;;;;;;5032749;28;20558;-83
2023/03/12 07:24:34;;;;;;;1.93;1.80;;;21.70;49.20;;;;;;5040609;28;20958;-82
2023/03/12 07:27:02;;;;;;;1.77;1.67;;;21.70;49.20;;;;;;5032283;28;20512;-82
2023/03/12 07:29:31;;;;;;;2.00;1.77;;;21.70;49.20;;;;;;5038072;28;20500;-83
2023/03/12 07:32:00;;;;;;;1.70;1.60;;;21.70;49.20;;;;;;5031143;28;20824;-82
2023/03/12 07:34:28;;;;;;;1.87;1.70;;;21.70;49.20;;;;;;5027584;28;20974;-82
2023/03/12 07:36:57;;;;;;;1.63;1.53;;;21.70;49.20;;;;;;5014739;28;20466;-83
2023/03/12 07:39:25;;;;;;;1.70;1.60;;;21.70;49.20;;;;;;5020174;28;20468;-80
2023/03/12 07:41:53;;;;;;;1.83;1.73;;;21.70;49.20;;;;;;5034053;28;20549;-81
2023/03/12 07:44:21;;;;;;;2.03;1.80;;;21.70;49.20;;;;;;5023877;28;20466;-81
2023/03/12 07:46:49;;;;;;;1.93;1.83;;;21.70;49.20;;;;;;5028312;28;20542;-81
2023/03/12 07:49:19;;;;;;;1.60;1.50;;;21.70;49.10;;;;;;5036551;28;20437;-81
2023/03/12 07:51:47;;;;;;;1.80;1.70;;;21.70;49.20;;;;;;5029306;28;20470;-81
2023/03/12 07:54:16;;;;;;;1.63;1.53;;;21.70;49.10;;;;;;5029572;28;20473;-83
2023/03/12 07:56:44;;;;;;;2.03;1.70;;;21.70;49.10;;;;;;5023185;28;20495;-83
2023/03/12 07:59:13;;;;;;;2.93;1.87;;;21.70;49.10;;;;;;5027576;28;20519;-83
2023/03/12 08:01:41;;;;;;;2.00;1.90;;;21.70;49.20;;;;;;5027188;28;20458;-83
2023/03/12 08:04:12;;;;;;;1.67;1.57;;;21.70;49.20;;;;;;5027110;28;21120;-83
2023/03/12 08:06:42;;;;;;;1.80;1.70;;;21.70;49.20;;;;;;5029856;28;20490;-83
2023/03/12 08:09:11;;;;;;;1.50;1.40;;;21.70;49.20;;;;;;5031308;28;20464;-82
2023/03/12 08:11:39;;;;;;;2.10;2.00;;;21.70;49.30;;;;;;5022609;28;20539;-82
2023/03/12 08:14:07;;;;;;;1.60;1.50;;;21.60;49.30;;;;;;5030161;28;20466;-83
2023/03/12 08:16:36;;;;;;;1.87;1.77;;;21.60;49.30;;;;;;5030436;28;20450;-83
2023/03/12 08:19:04;;;;;;;1.53;1.43;;;21.60;49.30;;;;;;5027705;28;20461;-83
2023/03/12 08:21:33;;;;;;;1.80;1.70;;;21.60;49.30;;;;;;5029829;28;20493;-83
2023/03/12 08:24:02;;;;;;;1.60;1.47;;;21.60;49.30;;;;;;5027429;28;20442;-83
2023/03/12 08:26:30;;;;;;;2.20;2.00;;;21.60;49.40;;;;;;5023633;28;20492;-83
2023/03/12 08:29:00;;;;;;;2.03;1.80;;;21.70;49.40;;;;;;5029135;28;20470;-83
2023/03/12 08:31:28;;;;;;;2.03;1.90;;;21.70;49.40;;;;;;5028036;28;20500;-83
2023/03/12 08:33:56;;;;;;;1.60;1.50;;;21.60;49.40;;;;;;5028456;28;20796;-83
2023/03/12 08:36:24;;;;;;;2.20;1.90;;;21.70;49.20;;;;;;5027842;28;20466;-83
2023/03/12 08:38:52;;;;;;;1.77;1.57;;;21.70;49.20;;;;;;5024632;28;20560;-83
2023/03/12 08:41:22;;;;;;;1.67;1.57;;;21.70;49.20;;;;;;5029982;28;20447;-83
2023/03/12 08:43:50;;;;;;;2.43;2.23;;;21.70;49.20;;;;;;5029846;28;20855;-83
2023/03/12 08:46:19;;;;;;;1.90;1.80;;;21.70;49.20;;;;;;5031235;28;20932;-83
2023/03/12 08:48:47;;;;;;;1.60;1.50;;;21.70;49.10;;;;;;5029699;28;20875;-82
2023/03/12 08:51:15;;;;;;;1.43;1.33;;;21.70;49.10;;;;;;5039791;28;20498;-83
2023/03/12 08:53:44;;;;;;;1.70;1.60;;;21.70;49.10;;;;;;5028173;28;20523;-82
2023/03/12 08:56:12;;;;;;;1.60;1.50;;;21.70;49.10;;;;;;5030892;28;20572;-82
2023/03/12 08:58:42;;;;;;;1.67;1.57;;;21.80;49.10;;;;;;5027930;28;20466;-83
2023/03/12 09:01:12;;;;;;;1.90;1.80;;;21.80;49.10;;;;;;5033098;28;20460;-82
2023/03/12 09:03:41;;;;;;;1.50;1.40;;;21.80;49.10;;;;;;5030438;28;20542;-82
2023/03/12 09:06:12;;;;;;;1.40;1.30;;;21.80;49.10;;;;;;5030384;28;20446;-82
2023/03/12 09:08:40;;;;;;;1.60;1.50;;;21.80;49.10;;;;;;5031019;28;20427;-82
2023/03/12 09:11:09;;;;;;;2.23;2.03;;;21.80;49.20;;;;;;5020204;28;20568;-82
2023/03/12 09:13:37;;;;;;;1.60;1.50;;;21.80;49.20;;;;;;5024349;28;20452;-82
2023/03/12 09:16:27;;;;;;;1.73;1.63;;;21.80;49.20;;;;;;5025873;28;20484;-82
2023/03/12 09:18:55;;;;;;;1.37;1.30;;;21.80;49.20;;;;;;5023665;28;20444;-82
2023/03/12 09:21:24;;;;;;;2.97;2.00;;;21.80;49.20;;;;;;5026076;28;20672;-82
2023/03/12 09:23:52;;;;;;;1.63;1.53;;;21.90;49.20;;;;;;5018644;28;20492;-84
2023/03/12 09:26:21;;;;;;;1.70;1.60;;;21.80;49.20;;;;;;5021829;28;20484;-83
2023/03/12 09:28:49;;;;;;;1.60;1.50;;;21.90;49.20;;;;;;5023104;28;20540;-83
2023/03/12 09:31:18;;;;;;;1.90;1.50;;;21.90;49.30;;;;;;5014509;28;20465;-82
2023/03/12 09:33:47;;;;;;;2.70;1.47;;;21.80;49.30;;;;;;5018440;28;20461;-83
2023/03/12 09:36:15;;;;;;;1.80;1.70;;;21.80;49.30;;;;;;5023712;28;20919;-83
2023/03/12 09:38:44;;;;;;;2.67;1.37;;;21.80;49.40;;;;;;5019672;28;20993;-83
2023/03/12 09:41:19;;;;;;;1.90;1.80;;;21.80;49.40;;;;;;5025356;28;20549;-82
2023/03/12 09:43:52;;;;;;;1.80;1.70;;;21.80;49.50;;;;;;5015889;28;20465;-83
2023/03/12 09:46:26;;;;;;;1.80;1.70;;;21.80;49.60;;;;;;5022896;28;20561;-84
2023/03/12 09:48:58;;;;;;;2.13;1.80;;;21.80;49.70;;;;;;5021168;28;21044;-83
2023/03/12 09:51:33;;;;;;;4.20;1.63;;;21.80;49.80;;;;;;5009745;28;20908;-83
2023/03/12 09:54:04;;;;;;;2.20;2.00;;;21.80;49.90;;;;;;5014834;28;20799;-83
2023/03/12 09:56:34;;;;;;;1.77;1.60;;;21.80;50.00;;;;;;5011338;28;20540;-83
2023/03/12 09:59:02;;;;;;;1.60;1.50;;;21.80;50.10;;;;;;5015862;28;20974;-83
2023/03/12 10:01:38;;;;;;;3.10;2.30;;;21.80;50.20;;;;;;5014078;28;20456;-83
2023/03/12 10:04:21;;;;;;;2.07;1.87;;;21.80;50.30;;;;;;5012095;28;20465;-83
2023/03/12 10:06:55;;;;;;;3.60;1.97;;;21.90;50.30;;;;;;5021189;28;20511;-82
2023/03/12 10:09:33;;;;;;;3.53;1.67;;;21.90;50.40;;;;;;5014192;28;20450;-82
2023/03/12 10:12:10;;;;;;;2.07;1.50;;;21.90;50.50;;;;;;5011250;28;20468;-82
2023/03/12 10:14:48;;;;;;;4.73;2.20;;;22.00;50.50;;;;;;5015230;28;20498;-82
2023/03/12 10:17:37;;;;;;;3.00;2.57;;;22.00;50.50;;;;;;5021504;28;20480;-83
2023/03/12 10:20:44;;;;;;;2.77;1.97;;;22.00;50.50;;;;;;5016815;28;20463;-83
2023/03/12 10:23:26;;;;;;;5.63;2.20;;;22.10;50.50;;;;;;4959964;28;20483;-76
2023/03/12 10:25:59;;;;;;;2.90;2.00;;;22.10;50.50;;;;;;5013174;28;20571;-79
2023/03/12 10:28:34;;;;;;;4.70;2.13;;;22.10;50.80;;;;;;5017127;28;20467;-78
2023/03/12 10:31:06;;;;;;;3.83;2.37;;;22.20;51.10;;;;;;5015321;28;20457;-79
2023/03/12 10:33:44;;;;;;;3.20;2.30;;;22.20;51.70;;;;;;5017177;28;20813;-79
2023/03/12 10:36:18;;;;;;;5.17;3.10;;;22.20;52.10;;;;;;5023232;28;20529;-82
2023/03/12 10:38:48;;;;;;;3.63;2.63;;;22.20;52.50;;;;;;5015387;28;20455;-82
2023/03/12 10:41:18;;;;;;;5.83;2.63;;;22.20;52.60;;;;;;5022044;28;20455;-80
2023/03/12 10:43:46;;;;;;;5.33;2.90;;;22.20;52.70;;;;;;5018561;28;20470;-81
2023/03/12 10:46:59;;;;;;;4.03;3.53;;;22.20;52.80;;;;;;5020935;28;20476;-81
2023/03/12 10:49:30;;;;;;;6.17;3.50;;;22.20;53.00;;;;;;4985157;28;20562;-78
2023/03/12 10:52:01;;;;;;;9.10;3.50;;;22.20;53.10;;;;;;5019803;28;21012;-78
2023/03/12 10:54:33;;;;;;;4.23;3.83;;;22.30;53.20;;;;;;5018191;28;20488;-81
2023/03/12 10:57:02;;;;;;;5.17;3.83;;;22.30;53.30;;;;;;5018139;28;20480;-81
2023/03/12 10:59:33;;;;;;;10.50;4.10;;;22.30;53.50;;;;;;5014628;28;20480;-81
2023/03/12 11:02:03;;;;;;;6.53;4.10;;;22.30;53.40;;;;;;5026216;28;20557;-80
2023/03/12 11:04:32;;;;;;;10.87;3.07;;;22.30;53.30;;;;;;5023847;28;20463;-79
2023/03/12 11:07:26;;;;;;;6.93;3.43;;;22.30;53.00;;;;;;5019857;28;20458;-79
2023/03/12 11:10:15;;;;;;;12.13;3.60;;;22.40;52.80;;;;;;5017017;28;20483;-79
2023/03/12 11:13:01;;;;;;;6.53;4.40;;;22.40;52.60;;;;;;5013792;28;21039;-78
2023/03/12 11:15:38;;;;;;;6.63;4.00;;;22.50;52.50;;;;;;5015253;28;20863;-80
2023/03/12 11:18:32;;;;;;;10.43;3.73;;;22.60;52.30;;;;;;5032089;28;20474;-80
2023/03/12 11:21:19;;;;;;;4.77;3.20;;;22.60;52.20;;;;;;5030601;28;20542;-79
2023/03/12 11:24:06;;;;;;;6.33;3.30;;;22.60;52.10;;;;;;5027236;28;20464;-79
2023/03/12 11:26:43;;;;;;;6.40;3.50;;;22.60;52.00;;;;;;5032463;28;20459;-80
2023/03/12 11:29:22;;;;;;;4.93;3.10;;;22.60;52.20;;;;;;5026550;28;20455;-79
2023/03/12 11:31:59;;;;;;;6.20;3.00;;;22.60;52.10;;;;;;5027559;28;20494;-79
2023/03/12 11:34:31;;;;;;;7.10;3.80;;;22.50;52.10;;;;;;5031407;28;20447;-79
2023/03/12 11:37:08;;;;;;;4.43;3.20;;;22.50;52.20;;;;;;5029125;28;20468;-79
2023/03/12 11:39:51;;;;;;;5.63;3.70;;;22.50;52.20;;;;;;5016136;28;20452;-80
2023/03/12 11:42:36;;;;;;;5.03;2.97;;;22.50;52.20;;;;;;5029528;28;20455;-79
2023/03/12 11:45:14;;;;;;;4.40;3.03;;;22.50;52.20;;;;;;5025062;28;20547;-80
2023/03/12 11:47:58;;;;;;;5.00;3.60;;;22.50;52.10;;;;;;5021301;28;20444;-79
2023/03/12 11:50:34;;;;;;;4.67;4.00;;;22.40;52.10;;;;;;5019464;28;20542;-78
2023/03/12 11:53:21;;;;;;;4.00;3.00;;;22.40;52.20;;;;;;5016856;28;20458;-79
2023/03/12 11:56:00;;;;;;;5.93;3.20;;;22.40;52.10;;;;;;5027334;28;20550;-78
2023/03/12 11:58:44;;;;;;;6.37;3.17;;;22.40;52.30;;;;;;5023996;28;20508;-79
2023/03/12 12:01:20;;;;;;;5.53;3.23;;;22.40;52.30;;;;;;5023647;28;20558;-79
2023/03/12 12:04:27;;;;;;;3.30;3.00;;;22.40;52.30;;;;;;5024432;28;21008;-79
2023/03/12 12:07:03;;;;;;;3.97;3.00;;;22.40;52.20;;;;;;5024819;28;20562;-81
2023/03/12 12:09:42;;;;;;;6.60;3.57;;;22.40;52.10;;;;;;5025653;28;20436;-79
2023/03/12 12:12:29;;;;;;;7.60;2.97;;;22.40;52.00;;;;;;5020627;28;20805;-79
2023/03/12 12:15:09;;;;;;;5.37;3.03;;;22.50;51.90;;;;;;5022445;28;20546;-79
2023/03/12 12:17:52;;;;;;;4.33;3.07;;;22.50;51.90;;;;;;5025033;28;20472;-80
2023/03/12 12:20:29;;;;;;;3.80;2.83;;;22.50;51.80;;;;;;5021399;28;20820;-79
2023/03/12 12:23:09;;;;;;;4.50;3.03;;;22.50;51.80;;;;;;5019199;28;20462;-79
2023/03/12 12:25:56;;;;;;;6.27;3.17;;;22.50;51.80;;;;;;5025370;28;20830;-79
2023/03/12 12:28:34;;;;;;;3.03;2.73;;;22.50;51.70;;;;;;5019578;28;20537;-82
2023/03/12 12:31:16;;;;;;;5.80;2.87;;;22.50;51.90;;;;;;5031423;28;20500;-79
2023/03/12 12:34:01;;;;;;;3.40;3.10;;;22.50;51.80;;;;;;5022304;28;20457;-79
2023/03/12 12:36:33;;;;;;;5.00;3.43;;;22.40;52.00;;;;;;5028803;28;20556;-82
2023/03/12 12:39:06;;;;;;;6.57;3.17;;;22.40;52.00;;;;;;5027942;28;20804;-80
2023/03/12 12:41:37;;;;;;;5.40;3.00;;;22.40;51.80;;;;;;5032081;28;20991;-79
2023/03/12 12:44:11;;;;;;;4.47;2.70;;;22.50;51.80;;;;;;5023223;28;20490;-80
2023/03/12 12:46:46;;;;;;;2.93;2.50;;;22.60;51.70;;;;;;5032220;28;20454;-79
2023/03/12 12:49:21;;;;;;;5.20;3.00;;;22.70;51.60;;;;;;5023545;28;20730;-79
2023/03/12 12:51:55;;;;;;;5.07;2.70;;;22.80;51.60;;;;;;5030758;28;20454;-79
2023/03/12 12:54:30;;;;;;;2.90;2.57;;;22.90;51.10;;;;;;5027569;28;20465;-78
2023/03/12 12:57:06;;;;;;;3.43;2.63;;;23.00;51.20;;;;;;5031079;28;20594;-78
2023/03/12 12:59:40;;;;;;;6.27;2.57;;;23.10;51.10;;;;;;5030537;28;20482;-78
2023/03/12 13:02:19;;;;;;;8.80;3.40;;;23.30;50.90;;;;;;5031643;28;20522;-79
2023/03/12 13:04:47;;;;;;;5.27;2.87;;;23.50;50.50;;;;;;5027800;28;20510;-81
2023/03/12 13:07:33;;;;;;;4.47;2.90;;;23.60;50.30;;;;;;5021350;28;20539;-80